sensor_id;sensor_type;location;lat;lon;timestamp;temperature;humidity
6664;DHT22;58749;48.022;10.922;2022-07-19T00:01:31;23.90;55.20
6664;DHT22;58749;48.022;10.922;2022-07-19T00:03:59;23.80;55.60
6664;DHT22;58749;48.022;10.922;2022-07-19T00:06:27;23.70;55.70
6664;DHT22;58749;48.022;10.922;2022-07-19T00:08:56;23.70;55.80
6664;DHT22;58749;48.022;10.922;2022-07-19T00:11:25;23.70;55.90
6664;DHT22;58749;48.022;10.922;2022-07-19T00:13:53;23.80;55.50
6664;DHT22;58749;48.022;10.922;2022-07-19T00:16:21;23.90;55.30
6664;DHT22;58749;48.022;10.922;2022-07-19T00:18:51;23.90;55.30
6664;DHT22;58749;48.022;10.922;2022-07-19T00:21:19;23.80;55.20
6664;DHT22;58749;48.022;10.922;2022-07-19T00:23:47;23.80;55.40
6664;DHT22;58749;48.022;10.922;2022-07-19T00:26:15;23.70;55.60
6664;DHT22;58749;48.022;10.922;2022-07-19T00:28:44;23.70;55.60
6664;DHT22;58749;48.022;10.922;2022-07-19T00:31:12;23.60;55.50
6664;DHT22;58749;48.022;10.922;2022-07-19T00:33:40;23.60;55.80
6664;DHT22;58749;48.022;10.922;2022-07-19T00:36:08;23.60;56.00
6664;DHT22;58749;48.022;10.922;2022-07-19T00:38:36;23.50;55.90
6664;DHT22;58749;48.022;10.922;2022-07-19T00:41:04;23.50;56.20
6664;DHT22;58749;48.022;10.922;2022-07-19T00:43:32;23.60;56.30
6664;DHT22;58749;48.022;10.922;2022-07-19T00:46:02;23.60;55.80
6664;DHT22;58749;48.022;10.922;2022-07-19T00:48:30;23.50;55.70
6664;DHT22;58749;48.022;10.922;2022-07-19T00:50:58;23.40;55.60
6664;DHT22;58749;48.022;10.922;2022-07-19T00:53:26;23.30;56.10
6664;DHT22;58749;48.022;10.922;2022-07-19T00:55:54;23.10;56.60
6664;DHT22;58749;48.022;10.922;2022-07-19T00:58:23;23.10;57.00
6664;DHT22;58749;48.022;10.922;2022-07-19T01:00:52;23.00;57.00
6664;DHT22;58749;48.022;10.922;2022-07-19T01:03:22;23.00;57.10
6664;DHT22;58749;48.022;10.922;2022-07-19T01:05:57;23.00;57.10
6664;DHT22;58749;48.022;10.922;2022-07-19T01:08:25;23.00;57.20
6664;DHT22;58749;48.022;10.922;2022-07-19T01:10:53;22.90;57.10
6664;DHT22;58749;48.022;10.922;2022-07-19T01:13:21;22.90;57.10
6664;DHT22;58749;48.022;10.922;2022-07-19T01:15:49;22.90;57.50
6664;DHT22;58749;48.022;10.922;2022-07-19T01:18:18;22.90;57.60
6664;DHT22;58749;48.022;10.922;2022-07-19T01:20:47;22.80;57.60
6664;DHT22;58749;48.022;10.922;2022-07-19T01:23:17;22.80;57.50
6664;DHT22;58749;48.022;10.922;2022-07-19T01:25:45;22.80;57.60
6664;DHT22;58749;48.022;10.922;2022-07-19T01:28:13;22.70;57.70
6664;DHT22;58749;48.022;10.922;2022-07-19T01:30:41;22.60;57.60
6664;DHT22;58749;48.022;10.922;2022-07-19T01:33:09;22.60;57.80
6664;DHT22;58749;48.022;10.922;2022-07-19T01:35:37;22.60;58.40
6664;DHT22;58749;48.022;10.922;2022-07-19T01:38:05;22.70;58.00
6664;DHT22;58749;48.022;10.922;2022-07-19T01:40:34;22.70;57.80
6664;DHT22;58749;48.022;10.922;2022-07-19T01:43:02;22.70;58.00
6664;DHT22;58749;48.022;10.922;2022-07-19T01:45:30;22.90;57.60
6664;DHT22;58749;48.022;10.922;2022-07-19T01:47:58;23.00;57.50
6664;DHT22;58749;48.022;10.922;2022-07-19T01:50:27;23.00;57.30
6664;DHT22;58749;48.022;10.922;2022-07-19T01:52:56;23.10;57.60
6664;DHT22;58749;48.022;10.922;2022-07-19T01:55:24;23.10;57.40
6664;DHT22;58749;48.022;10.922;2022-07-19T01:57:53;23.20;57.30
6664;DHT22;58749;48.022;10.922;2022-07-19T02:00:22;23.20;56.90
6664;DHT22;58749;48.022;10.922;2022-07-19T02:02:50;23.20;57.10
6664;DHT22;58749;48.022;10.922;2022-07-19T02:05:19;23.20;57.10
6664;DHT22;58749;48.022;10.922;2022-07-19T02:07:47;23.20;57.10
6664;DHT22;58749;48.022;10.922;2022-07-19T02:10:16;23.20;57.00
6664;DHT22;58749;48.022;10.922;2022-07-19T02:12:44;23.20;56.90
6664;DHT22;58749;48.022;10.922;2022-07-19T02:15:13;23.20;56.90
6664;DHT22;58749;48.022;10.922;2022-07-19T02:17:42;23.30;56.80
6664;DHT22;58749;48.022;10.922;2022-07-19T02:20:11;23.30;57.10
6664;DHT22;58749;48.022;10.922;2022-07-19T02:22:39;23.30;57.00
6664;DHT22;58749;48.022;10.922;2022-07-19T02:25:08;23.20;57.20
6664;DHT22;58749;48.022;10.922;2022-07-19T02:27:36;23.20;57.20
6664;DHT22;58749;48.022;10.922;2022-07-19T02:30:05;23.20;57.00
6664;DHT22;58749;48.022;10.922;2022-07-19T02:32:35;23.20;57.00
6664;DHT22;58749;48.022;10.922;2022-07-19T02:35:04;23.20;56.80
6664;DHT22;58749;48.022;10.922;2022-07-19T02:37:32;23.10;56.90
6664;DHT22;58749;48.022;10.922;2022-07-19T02:40:00;23.10;57.10
6664;DHT22;58749;48.022;10.922;2022-07-19T02:42:28;23.10;57.10
6664;DHT22;58749;48.022;10.922;2022-07-19T02:44:56;23.00;57.20
6664;DHT22;58749;48.022;10.922;2022-07-19T02:47:25;22.90;57.20
6664;DHT22;58749;48.022;10.922;2022-07-19T02:49:54;22.80;57.40
6664;DHT22;58749;48.022;10.922;2022-07-19T02:52:22;22.60;57.90
6664;DHT22;58749;48.022;10.922;2022-07-19T02:54:50;22.50;58.30
6664;DHT22;58749;48.022;10.922;2022-07-19T02:57:18;22.40;58.60
6664;DHT22;58749;48.022;10.922;2022-07-19T02:59:46;22.30;59.00
6664;DHT22;58749;48.022;10.922;2022-07-19T03:02:14;22.40;59.10
6664;DHT22;58749;48.022;10.922;2022-07-19T03:04:42;22.40;59.20
6664;DHT22;58749;48.022;10.922;2022-07-19T03:07:12;22.40;59.40
6664;DHT22;58749;48.022;10.922;2022-07-19T03:09:41;22.40;59.60
6664;DHT22;58749;48.022;10.922;2022-07-19T03:12:09;22.40;59.80
6664;DHT22;58749;48.022;10.922;2022-07-19T03:14:37;22.40;59.60
6664;DHT22;58749;48.022;10.922;2022-07-19T03:17:05;22.40;59.40
6664;DHT22;58749;48.022;10.922;2022-07-19T03:19:33;22.50;59.30
6664;DHT22;58749;48.022;10.922;2022-07-19T03:22:01;22.50;59.40
6664;DHT22;58749;48.022;10.922;2022-07-19T03:24:30;22.50;59.30
6664;DHT22;58749;48.022;10.922;2022-07-19T03:26:58;22.60;59.00
6664;DHT22;58749;48.022;10.922;2022-07-19T03:29:26;22.60;58.90
6664;DHT22;58749;48.022;10.922;2022-07-19T03:31:56;22.70;58.80
6664;DHT22;58749;48.022;10.922;2022-07-19T03:34:24;22.70;58.60
6664;DHT22;58749;48.022;10.922;2022-07-19T03:36:52;22.60;58.50
6664;DHT22;58749;48.022;10.922;2022-07-19T03:39:20;22.60;58.40
6664;DHT22;58749;48.022;10.922;2022-07-19T03:41:49;22.60;58.60
6664;DHT22;58749;48.022;10.922;2022-07-19T03:44:25;22.60;58.80
6664;DHT22;58749;48.022;10.922;2022-07-19T03:46:53;22.60;58.60
6664;DHT22;58749;48.022;10.922;2022-07-19T03:49:21;22.50;58.50
6664;DHT22;58749;48.022;10.922;2022-07-19T03:51:55;22.50;58.80
6664;DHT22;58749;48.022;10.922;2022-07-19T03:54:23;22.30;59.30
6664;DHT22;58749;48.022;10.922;2022-07-19T03:56:53;22.20;59.90
6664;DHT22;58749;48.022;10.922;2022-07-19T03:59:22;22.10;60.40
6664;DHT22;58749;48.022;10.922;2022-07-19T04:01:50;22.00;60.80
6664;DHT22;58749;48.022;10.922;2022-07-19T04:04:18;22.00;60.80
6664;DHT22;58749;48.022;10.922;2022-07-19T04:06:46;21.90;60.80
6664;DHT22;58749;48.022;10.922;2022-07-19T04:09:14;21.90;60.90
6664;DHT22;58749;48.022;10.922;2022-07-19T04:11:43;21.70;60.80
6664;DHT22;58749;48.022;10.922;2022-07-19T04:14:12;21.70;61.40
6664;DHT22;58749;48.022;10.922;2022-07-19T04:16:40;21.60;61.90
6664;DHT22;58749;48.022;10.922;2022-07-19T04:19:08;21.60;62.20
6664;DHT22;58749;48.022;10.922;2022-07-19T04:21:36;21.70;62.50
6664;DHT22;58749;48.022;10.922;2022-07-19T04:24:05;21.90;61.70
6664;DHT22;58749;48.022;10.922;2022-07-19T04:26:37;21.90;61.00
6664;DHT22;58749;48.022;10.922;2022-07-19T04:29:05;22.10;60.60
6664;DHT22;58749;48.022;10.922;2022-07-19T04:31:35;22.20;60.30
6664;DHT22;58749;48.022;10.922;2022-07-19T04:34:03;22.20;59.90
6664;DHT22;58749;48.022;10.922;2022-07-19T04:36:31;22.20;59.50
6664;DHT22;58749;48.022;10.922;2022-07-19T04:38:59;22.20;59.40
6664;DHT22;58749;48.022;10.922;2022-07-19T04:41:28;22.20;59.20
6664;DHT22;58749;48.022;10.922;2022-07-19T04:43:56;22.10;59.40
6664;DHT22;58749;48.022;10.922;2022-07-19T04:46:25;22.00;60.00
6664;DHT22;58749;48.022;10.922;2022-07-19T04:48:55;21.90;61.10
6664;DHT22;58749;48.022;10.922;2022-07-19T04:51:23;21.80;61.60
6664;DHT22;58749;48.022;10.922;2022-07-19T04:53:52;21.70;62.00
6664;DHT22;58749;48.022;10.922;2022-07-19T04:56:21;21.70;62.00
6664;DHT22;58749;48.022;10.922;2022-07-19T04:58:49;21.80;62.40
6664;DHT22;58749;48.022;10.922;2022-07-19T05:01:17;21.90;62.20
6664;DHT22;58749;48.022;10.922;2022-07-19T05:03:46;21.90;61.80
6664;DHT22;58749;48.022;10.922;2022-07-19T05:06:16;21.80;62.00
6664;DHT22;58749;48.022;10.922;2022-07-19T05:08:45;21.70;62.90
6664;DHT22;58749;48.022;10.922;2022-07-19T05:11:13;21.50;64.30
6664;DHT22;58749;48.022;10.922;2022-07-19T05:13:42;21.40;65.20
6664;DHT22;58749;48.022;10.922;2022-07-19T05:16:10;21.30;65.30
6664;DHT22;58749;48.022;10.922;2022-07-19T05:18:39;21.30;66.00
6664;DHT22;58749;48.022;10.922;2022-07-19T05:21:08;21.30;66.50
6664;DHT22;58749;48.022;10.922;2022-07-19T05:23:39;21.30;66.80
6664;DHT22;58749;48.022;10.922;2022-07-19T05:26:08;21.30;66.60
6664;DHT22;58749;48.022;10.922;2022-07-19T05:28:36;21.40;65.60
6664;DHT22;58749;48.022;10.922;2022-07-19T05:31:05;21.50;65.60
6664;DHT22;58749;48.022;10.922;2022-07-19T05:33:33;21.60;65.60
6664;DHT22;58749;48.022;10.922;2022-07-19T05:36:01;21.70;65.70
6664;DHT22;58749;48.022;10.922;2022-07-19T05:38:29;21.80;65.20
6664;DHT22;58749;48.022;10.922;2022-07-19T05:41:03;21.80;65.70
6664;DHT22;58749;48.022;10.922;2022-07-19T05:43:31;21.80;65.40
6664;DHT22;58749;48.022;10.922;2022-07-19T05:46:00;21.80;65.60
6664;DHT22;58749;48.022;10.922;2022-07-19T05:48:28;21.80;64.90
6664;DHT22;58749;48.022;10.922;2022-07-19T05:50:56;21.80;64.40
6664;DHT22;58749;48.022;10.922;2022-07-19T05:53:26;22.00;64.10
6664;DHT22;58749;48.022;10.922;2022-07-19T05:55:55;22.00;63.70
6664;DHT22;58749;48.022;10.922;2022-07-19T05:58:24;22.00;63.40
6664;DHT22;58749;48.022;10.922;2022-07-19T06:01:00;22.00;63.70
6664;DHT22;58749;48.022;10.922;2022-07-19T06:03:47;22.00;64.60
6664;DHT22;58749;48.022;10.922;2022-07-19T06:06:24;21.90;64.20
6664;DHT22;58749;48.022;10.922;2022-07-19T06:08:53;21.90;64.40
6664;DHT22;58749;48.022;10.922;2022-07-19T06:11:21;21.90;64.80
6664;DHT22;58749;48.022;10.922;2022-07-19T06:13:51;22.00;65.20
6664;DHT22;58749;48.022;10.922;2022-07-19T06:16:19;22.20;64.20
6664;DHT22;58749;48.022;10.922;2022-07-19T06:18:48;22.30;63.70
6664;DHT22;58749;48.022;10.922;2022-07-19T06:21:17;22.40;63.30
6664;DHT22;58749;48.022;10.922;2022-07-19T06:23:46;22.50;63.30
6664;DHT22;58749;48.022;10.922;2022-07-19T06:26:16;22.50;63.80
6664;DHT22;58749;48.022;10.922;2022-07-19T06:28:44;22.60;63.50
6664;DHT22;58749;48.022;10.922;2022-07-19T06:31:14;22.70;63.70
6664;DHT22;58749;48.022;10.922;2022-07-19T06:33:46;22.80;62.60
6664;DHT22;58749;48.022;10.922;2022-07-19T06:36:15;22.90;62.70
6664;DHT22;58749;48.022;10.922;2022-07-19T06:38:44;22.90;62.70
6664;DHT22;58749;48.022;10.922;2022-07-19T06:41:13;23.10;64.00
6664;DHT22;58749;48.022;10.922;2022-07-19T06:43:41;23.10;63.40
6664;DHT22;58749;48.022;10.922;2022-07-19T06:46:10;23.10;62.60
6664;DHT22;58749;48.022;10.922;2022-07-19T06:48:40;23.10;62.10
6664;DHT22;58749;48.022;10.922;2022-07-19T06:51:08;23.20;61.80
6664;DHT22;58749;48.022;10.922;2022-07-19T06:53:36;23.20;61.30
6664;DHT22;58749;48.022;10.922;2022-07-19T06:56:05;23.20;62.50
6664;DHT22;58749;48.022;10.922;2022-07-19T06:58:33;23.30;62.20
6664;DHT22;58749;48.022;10.922;2022-07-19T07:01:08;23.30;62.40
6664;DHT22;58749;48.022;10.922;2022-07-19T07:03:36;23.30;61.90
6664;DHT22;58749;48.022;10.922;2022-07-19T07:06:06;23.40;61.60
6664;DHT22;58749;48.022;10.922;2022-07-19T07:08:36;23.40;62.40
6664;DHT22;58749;48.022;10.922;2022-07-19T07:11:05;23.30;60.20
6664;DHT22;58749;48.022;10.922;2022-07-19T07:13:33;23.30;61.30
6664;DHT22;58749;48.022;10.922;2022-07-19T07:16:01;23.30;62.20
6664;DHT22;58749;48.022;10.922;2022-07-19T07:18:29;23.30;63.40
6664;DHT22;58749;48.022;10.922;2022-07-19T07:20:58;23.40;63.70
6664;DHT22;58749;48.022;10.922;2022-07-19T07:23:27;23.40;62.50
6664;DHT22;58749;48.022;10.922;2022-07-19T07:25:55;23.50;62.40
6664;DHT22;58749;48.022;10.922;2022-07-19T07:28:23;23.50;61.60
6664;DHT22;58749;48.022;10.922;2022-07-19T07:30:52;23.50;63.50
6664;DHT22;58749;48.022;10.922;2022-07-19T07:33:20;23.60;62.20
6664;DHT22;58749;48.022;10.922;2022-07-19T07:35:49;23.70;63.00
6664;DHT22;58749;48.022;10.922;2022-07-19T07:38:17;23.80;60.60
6664;DHT22;58749;48.022;10.922;2022-07-19T07:40:46;23.90;61.70
6664;DHT22;58749;48.022;10.922;2022-07-19T07:43:14;23.90;61.40
6664;DHT22;58749;48.022;10.922;2022-07-19T07:45:42;24.00;60.30
6664;DHT22;58749;48.022;10.922;2022-07-19T07:48:11;24.10;59.90
6664;DHT22;58749;48.022;10.922;2022-07-19T07:50:41;24.10;60.10
6664;DHT22;58749;48.022;10.922;2022-07-19T07:53:09;24.20;59.90
6664;DHT22;58749;48.022;10.922;2022-07-19T07:55:37;24.20;58.40
6664;DHT22;58749;48.022;10.922;2022-07-19T07:58:09;24.30;59.60
6664;DHT22;58749;48.022;10.922;2022-07-19T08:00:39;24.50;58.00
6664;DHT22;58749;48.022;10.922;2022-07-19T08:03:08;24.50;58.80
6664;DHT22;58749;48.022;10.922;2022-07-19T08:05:36;24.60;58.00
6664;DHT22;58749;48.022;10.922;2022-07-19T08:08:05;24.60;59.10
6664;DHT22;58749;48.022;10.922;2022-07-19T08:10:33;24.70;57.50
6664;DHT22;58749;48.022;10.922;2022-07-19T08:13:02;24.70;58.00
6664;DHT22;58749;48.022;10.922;2022-07-19T08:15:35;24.80;57.50
6664;DHT22;58749;48.022;10.922;2022-07-19T08:18:04;24.80;57.50
6664;DHT22;58749;48.022;10.922;2022-07-19T08:20:32;24.90;58.30
6664;DHT22;58749;48.022;10.922;2022-07-19T08:23:00;25.00;57.00
6664;DHT22;58749;48.022;10.922;2022-07-19T08:25:29;25.10;57.80
6664;DHT22;58749;48.022;10.922;2022-07-19T08:27:59;25.20;56.40
6664;DHT22;58749;48.022;10.922;2022-07-19T08:30:27;25.20;56.10
6664;DHT22;58749;48.022;10.922;2022-07-19T08:33:17;25.30;56.90
6664;DHT22;58749;48.022;10.922;2022-07-19T08:35:45;25.40;56.40
6664;DHT22;58749;48.022;10.922;2022-07-19T08:38:21;25.50;57.10
6664;DHT22;58749;48.022;10.922;2022-07-19T08:40:51;25.60;54.60
6664;DHT22;58749;48.022;10.922;2022-07-19T08:43:20;25.70;54.00
6664;DHT22;58749;48.022;10.922;2022-07-19T08:45:49;25.80;54.10
6664;DHT22;58749;48.022;10.922;2022-07-19T08:48:19;25.80;55.00
6664;DHT22;58749;48.022;10.922;2022-07-19T08:50:50;25.90;54.30
6664;DHT22;58749;48.022;10.922;2022-07-19T08:53:20;26.00;52.40
6664;DHT22;58749;48.022;10.922;2022-07-19T08:55:49;26.10;52.60
6664;DHT22;58749;48.022;10.922;2022-07-19T08:58:18;26.20;50.60
6664;DHT22;58749;48.022;10.922;2022-07-19T09:00:45;26.20;50.00
6664;DHT22;58749;48.022;10.922;2022-07-19T09:03:13;26.30;52.50
6664;DHT22;58749;48.022;10.922;2022-07-19T09:05:43;26.40;52.00
6664;DHT22;58749;48.022;10.922;2022-07-19T09:08:13;26.40;49.70
6664;DHT22;58749;48.022;10.922;2022-07-19T09:10:43;26.50;50.10
6664;DHT22;58749;48.022;10.922;2022-07-19T09:13:32;26.60;50.00
6664;DHT22;58749;48.022;10.922;2022-07-19T09:16:01;26.60;49.30
6664;DHT22;58749;48.022;10.922;2022-07-19T09:18:31;26.70;48.80
6664;DHT22;58749;48.022;10.922;2022-07-19T09:21:03;26.70;50.20
6664;DHT22;58749;48.022;10.922;2022-07-19T09:23:32;26.80;49.60
6664;DHT22;58749;48.022;10.922;2022-07-19T09:26:04;26.90;48.70
6664;DHT22;58749;48.022;10.922;2022-07-19T09:28:34;26.90;49.80
6664;DHT22;58749;48.022;10.922;2022-07-19T09:31:03;27.00;48.60
6664;DHT22;58749;48.022;10.922;2022-07-19T09:33:32;27.10;49.80
6664;DHT22;58749;48.022;10.922;2022-07-19T09:36:04;27.20;49.50
6664;DHT22;58749;48.022;10.922;2022-07-19T09:38:38;27.20;47.80
6664;DHT22;58749;48.022;10.922;2022-07-19T09:41:11;27.30;48.00
6664;DHT22;58749;48.022;10.922;2022-07-19T09:43:55;27.40;46.10
6664;DHT22;58749;48.022;10.922;2022-07-19T09:46:30;27.40;46.50
6664;DHT22;58749;48.022;10.922;2022-07-19T09:49:03;27.50;47.80
6664;DHT22;58749;48.022;10.922;2022-07-19T09:51:35;27.60;46.90
6664;DHT22;58749;48.022;10.922;2022-07-19T09:54:06;27.70;47.10
6664;DHT22;58749;48.022;10.922;2022-07-19T09:56:36;27.80;47.10
6664;DHT22;58749;48.022;10.922;2022-07-19T09:59:04;27.90;48.00
6664;DHT22;58749;48.022;10.922;2022-07-19T10:01:33;27.80;46.10
6664;DHT22;58749;48.022;10.922;2022-07-19T10:04:03;27.90;46.60
6664;DHT22;58749;48.022;10.922;2022-07-19T10:06:35;28.00;46.60
6664;DHT22;58749;48.022;10.922;2022-07-19T10:09:05;28.10;48.00
6664;DHT22;58749;48.022;10.922;2022-07-19T10:11:34;28.20;48.50
6664;DHT22;58749;48.022;10.922;2022-07-19T10:14:02;28.20;45.30
6664;DHT22;58749;48.022;10.922;2022-07-19T10:16:42;28.20;46.60
6664;DHT22;58749;48.022;10.922;2022-07-19T10:19:17;28.30;47.00
6664;DHT22;58749;48.022;10.922;2022-07-19T10:21:48;28.40;46.50
6664;DHT22;58749;48.022;10.922;2022-07-19T10:24:41;28.40;45.00
6664;DHT22;58749;48.022;10.922;2022-07-19T10:27:09;28.40;44.80
6664;DHT22;58749;48.022;10.922;2022-07-19T10:29:37;28.50;44.40
6664;DHT22;58749;48.022;10.922;2022-07-19T10:32:07;28.50;44.80
6664;DHT22;58749;48.022;10.922;2022-07-19T10:34:36;28.60;45.60
6664;DHT22;58749;48.022;10.922;2022-07-19T10:37:06;28.60;43.80
6664;DHT22;58749;48.022;10.922;2022-07-19T10:39:35;28.60;44.90
6664;DHT22;58749;48.022;10.922;2022-07-19T10:42:16;28.70;44.90
6664;DHT22;58749;48.022;10.922;2022-07-19T10:45:17;28.70;43.80
6664;DHT22;58749;48.022;10.922;2022-07-19T10:47:59;28.80;43.70
6664;DHT22;58749;48.022;10.922;2022-07-19T10:50:54;28.90;44.70
6664;DHT22;58749;48.022;10.922;2022-07-19T10:53:55;29.00;43.10
6664;DHT22;58749;48.022;10.922;2022-07-19T10:56:56;29.10;42.30
6664;DHT22;58749;48.022;10.922;2022-07-19T10:59:34;29.10;42.50
6664;DHT22;58749;48.022;10.922;2022-07-19T11:02:04;29.10;43.40
6664;DHT22;58749;48.022;10.922;2022-07-19T11:04:53;29.10;42.70
6664;DHT22;58749;48.022;10.922;2022-07-19T11:07:23;29.20;42.40
6664;DHT22;58749;48.022;10.922;2022-07-19T11:09:55;29.30;42.20
6664;DHT22;58749;48.022;10.922;2022-07-19T11:12:34;29.40;40.70
6664;DHT22;58749;48.022;10.922;2022-07-19T11:15:07;29.40;40.20
6664;DHT22;58749;48.022;10.922;2022-07-19T11:17:53;29.40;40.40
6664;DHT22;58749;48.022;10.922;2022-07-19T11:20:23;29.40;39.20
6664;DHT22;58749;48.022;10.922;2022-07-19T11:22:52;29.50;42.30
6664;DHT22;58749;48.022;10.922;2022-07-19T11:25:28;29.60;39.70
6664;DHT22;58749;48.022;10.922;2022-07-19T11:27:57;29.60;41.30
6664;DHT22;58749;48.022;10.922;2022-07-19T11:30:30;29.60;39.10
6664;DHT22;58749;48.022;10.922;2022-07-19T11:33:00;29.60;41.70
6664;DHT22;58749;48.022;10.922;2022-07-19T11:35:30;29.60;38.90
6664;DHT22;58749;48.022;10.922;2022-07-19T11:37:59;29.70;39.80
6664;DHT22;58749;48.022;10.922;2022-07-19T11:40:34;29.80;41.60
6664;DHT22;58749;48.022;10.922;2022-07-19T11:43:07;29.80;38.80
6664;DHT22;58749;48.022;10.922;2022-07-19T11:45:46;29.80;39.50
6664;DHT22;58749;48.022;10.922;2022-07-19T11:48:26;29.90;39.70
6664;DHT22;58749;48.022;10.922;2022-07-19T11:51:04;29.90;37.70
6664;DHT22;58749;48.022;10.922;2022-07-19T11:53:34;30.00;39.40
6664;DHT22;58749;48.022;10.922;2022-07-19T11:56:05;30.10;39.70
6664;DHT22;58749;48.022;10.922;2022-07-19T11:58:35;30.20;39.70
6664;DHT22;58749;48.022;10.922;2022-07-19T12:01:05;30.20;39.80
6664;DHT22;58749;48.022;10.922;2022-07-19T12:03:34;30.30;38.50
6664;DHT22;58749;48.022;10.922;2022-07-19T12:06:04;30.30;37.70
6664;DHT22;58749;48.022;10.922;2022-07-19T12:08:37;30.30;39.90
6664;DHT22;58749;48.022;10.922;2022-07-19T12:11:22;30.40;39.60
6664;DHT22;58749;48.022;10.922;2022-07-19T12:13:52;30.40;37.00
6664;DHT22;58749;48.022;10.922;2022-07-19T12:16:21;30.40;38.90
6664;DHT22;58749;48.022;10.922;2022-07-19T12:18:52;30.40;40.70
6664;DHT22;58749;48.022;10.922;2022-07-19T12:21:26;30.30;39.60
6664;DHT22;58749;48.022;10.922;2022-07-19T12:24:22;30.40;39.40
6664;DHT22;58749;48.022;10.922;2022-07-19T12:27:02;30.40;37.30
6664;DHT22;58749;48.022;10.922;2022-07-19T12:29:33;30.50;37.40
6664;DHT22;58749;48.022;10.922;2022-07-19T12:32:04;30.60;37.70
6664;DHT22;58749;48.022;10.922;2022-07-19T12:34:44;30.60;37.10
6664;DHT22;58749;48.022;10.922;2022-07-19T12:37:24;30.60;38.50
6664;DHT22;58749;48.022;10.922;2022-07-19T12:40:01;30.60;38.00
6664;DHT22;58749;48.022;10.922;2022-07-19T12:42:42;30.70;37.90
6664;DHT22;58749;48.022;10.922;2022-07-19T12:45:13;30.70;38.90
6664;DHT22;58749;48.022;10.922;2022-07-19T12:47:42;30.70;39.10
6664;DHT22;58749;48.022;10.922;2022-07-19T12:50:19;30.80;37.90
6664;DHT22;58749;48.022;10.922;2022-07-19T12:52:50;30.80;37.30
6664;DHT22;58749;48.022;10.922;2022-07-19T12:55:19;30.80;37.10
6664;DHT22;58749;48.022;10.922;2022-07-19T12:57:50;30.90;34.70
6664;DHT22;58749;48.022;10.922;2022-07-19T13:00:20;30.90;34.30
6664;DHT22;58749;48.022;10.922;2022-07-19T13:02:50;30.90;36.00
6664;DHT22;58749;48.022;10.922;2022-07-19T13:05:20;30.90;36.10
6664;DHT22;58749;48.022;10.922;2022-07-19T13:07:49;30.90;36.40
6664;DHT22;58749;48.022;10.922;2022-07-19T13:10:17;30.90;36.10
6664;DHT22;58749;48.022;10.922;2022-07-19T13:12:46;31.00;34.10
6664;DHT22;58749;48.022;10.922;2022-07-19T13:15:15;31.00;36.70
6664;DHT22;58749;48.022;10.922;2022-07-19T13:17:44;31.00;38.60
6664;DHT22;58749;48.022;10.922;2022-07-19T13:20:12;31.00;37.80
6664;DHT22;58749;48.022;10.922;2022-07-19T13:22:41;31.00;37.40
6664;DHT22;58749;48.022;10.922;2022-07-19T13:25:10;31.00;38.50
6664;DHT22;58749;48.022;10.922;2022-07-19T13:27:58;31.00;38.50
6664;DHT22;58749;48.022;10.922;2022-07-19T13:30:29;31.00;35.60
6664;DHT22;58749;48.022;10.922;2022-07-19T13:32:57;31.00;35.30
6664;DHT22;58749;48.022;10.922;2022-07-19T13:35:27;31.00;34.20
6664;DHT22;58749;48.022;10.922;2022-07-19T13:37:57;31.10;35.50
6664;DHT22;58749;48.022;10.922;2022-07-19T13:40:26;31.10;33.90
6664;DHT22;58749;48.022;10.922;2022-07-19T13:42:54;31.10;34.60
6664;DHT22;58749;48.022;10.922;2022-07-19T13:45:22;31.20;33.40
6664;DHT22;58749;48.022;10.922;2022-07-19T13:47:52;31.20;32.60
6664;DHT22;58749;48.022;10.922;2022-07-19T13:50:27;31.20;36.00
6664;DHT22;58749;48.022;10.922;2022-07-19T13:52:55;31.20;35.00
6664;DHT22;58749;48.022;10.922;2022-07-19T13:55:23;31.10;33.60
6664;DHT22;58749;48.022;10.922;2022-07-19T13:57:52;31.10;36.30
6664;DHT22;58749;48.022;10.922;2022-07-19T14:00:21;31.10;34.70
6664;DHT22;58749;48.022;10.922;2022-07-19T14:02:52;31.20;34.50
6664;DHT22;58749;48.022;10.922;2022-07-19T14:05:20;31.20;33.50
6664;DHT22;58749;48.022;10.922;2022-07-19T14:07:49;31.20;33.50
6664;DHT22;58749;48.022;10.922;2022-07-19T14:10:17;31.30;35.00
6664;DHT22;58749;48.022;10.922;2022-07-19T14:12:45;31.30;33.80
6664;DHT22;58749;48.022;10.922;2022-07-19T14:15:34;31.30;31.60
6664;DHT22;58749;48.022;10.922;2022-07-19T14:18:04;31.30;33.10
6664;DHT22;58749;48.022;10.922;2022-07-19T14:20:32;31.40;33.90
6664;DHT22;58749;48.022;10.922;2022-07-19T14:23:00;31.40;35.20
6664;DHT22;58749;48.022;10.922;2022-07-19T14:25:28;31.40;32.30
6664;DHT22;58749;48.022;10.922;2022-07-19T14:27:56;31.40;33.30
6664;DHT22;58749;48.022;10.922;2022-07-19T14:30:25;31.40;33.00
6664;DHT22;58749;48.022;10.922;2022-07-19T14:32:53;31.30;31.10
6664;DHT22;58749;48.022;10.922;2022-07-19T14:35:23;31.40;33.80
6664;DHT22;58749;48.022;10.922;2022-07-19T14:37:51;31.40;33.30
6664;DHT22;58749;48.022;10.922;2022-07-19T14:40:20;31.40;33.70
6664;DHT22;58749;48.022;10.922;2022-07-19T14:42:48;31.30;32.00
6664;DHT22;58749;48.022;10.922;2022-07-19T14:45:16;31.30;33.70
6664;DHT22;58749;48.022;10.922;2022-07-19T14:47:44;31.30;34.30
6664;DHT22;58749;48.022;10.922;2022-07-19T14:50:22;31.30;33.30
6664;DHT22;58749;48.022;10.922;2022-07-19T14:52:50;31.30;33.80
6664;DHT22;58749;48.022;10.922;2022-07-19T14:55:18;31.30;33.90
6664;DHT22;58749;48.022;10.922;2022-07-19T14:57:47;31.30;34.60
6664;DHT22;58749;48.022;10.922;2022-07-19T15:00:15;31.20;35.10
6664;DHT22;58749;48.022;10.922;2022-07-19T15:03:02;31.10;33.60
6664;DHT22;58749;48.022;10.922;2022-07-19T15:05:31;31.10;34.00
6664;DHT22;58749;48.022;10.922;2022-07-19T15:08:02;31.10;33.60
6664;DHT22;58749;48.022;10.922;2022-07-19T15:10:30;31.10;33.70
6664;DHT22;58749;48.022;10.922;2022-07-19T15:12:58;31.10;36.10
6664;DHT22;58749;48.022;10.922;2022-07-19T15:15:26;31.10;35.50
6664;DHT22;58749;48.022;10.922;2022-07-19T15:17:54;31.10;35.80
6664;DHT22;58749;48.022;10.922;2022-07-19T15:20:26;31.10;35.20
6664;DHT22;58749;48.022;10.922;2022-07-19T15:22:55;31.10;35.90
6664;DHT22;58749;48.022;10.922;2022-07-19T15:25:23;31.10;35.10
6664;DHT22;58749;48.022;10.922;2022-07-19T15:27:52;31.10;35.10
6664;DHT22;58749;48.022;10.922;2022-07-19T15:30:21;31.10;34.50
6664;DHT22;58749;48.022;10.922;2022-07-19T15:32:49;31.00;34.70
6664;DHT22;58749;48.022;10.922;2022-07-19T15:35:18;31.00;35.60
6664;DHT22;58749;48.022;10.922;2022-07-19T15:37:46;31.00;36.70
6664;DHT22;58749;48.022;10.922;2022-07-19T15:40:16;31.00;35.20
6664;DHT22;58749;48.022;10.922;2022-07-19T15:42:46;30.90;34.50
6664;DHT22;58749;48.022;10.922;2022-07-19T15:45:16;30.90;35.20
6664;DHT22;58749;48.022;10.922;2022-07-19T15:47:45;30.90;33.50
6664;DHT22;58749;48.022;10.922;2022-07-19T15:50:15;30.90;35.10